Adjud, Romania

1:55 PM EET on March 27, 2015 (GMT +0200)
Bacau | | Change Station
CLOSE
Current Station
Airport
Location: Bacau,
Elevation: 607 ft
Nearby Weather Stations

Elev 607 ft 46.52 °N, 26.91 °E | Updated 25 minutes ago

Light Rain
Light Rain
50 °F
Feels Like 50 °F
N
9
Wind Variable Wind from SSE

Today
High -- | Low -- °F
--% Chance of Precip.
Yesterday
High -- | Low -- °F
Precip. -- in
6:01 AM 6:32 PM
First Quarter, 52% visible
Pressure 29.86 in
Visibility 4.3 miles
Clouds Few 1000 ft
Mostly Cloudy 1400 ft
Dew Point 48 °F
Humidity 94%
Rainfall 0.00 in
Snow Depth Not available.
UV 3 out of 12
Pollen Not available.
Air Quality Not available.
Flu Activity Not available.
METAR LRBC 271130Z 16008KT 7000 -RA FEW010 BKN014 10/09 Q1011 R16/19//95

More Conditions Fewer Conditions

Pressure 29.86 in
Visibility 4.3 miles
Clouds Few 1000 ft
Mostly Cloudy 1400 ft
Dew Point 48 °F
Humidity 94%
Rainfall 0.00 in
Snow Depth Not available.
UV 3 out of 12
Pollen Not available.
Air Quality Not available.
Flu Activity Not available.
METAR LRBC 271130Z 16008KT 7000 -RA FEW010 BKN014 10/09 Q1011 R16/19//95

More Conditions Fewer Conditions

10-Day Weather Forecast

Almanac

Astronomy

Mar. 27, 2015 Rise Set
Actual Time
Civil Twilight
Nautical Twilight
Astronomical Twilight
Moon
Length of Visible Light
Length of Day
Tomorrow will be .
, % of the Moon is Illuminated

Today's Extremes

Country Highs Country Lows

Community

WunderPhotos

Upload Photos

1,808,710 photos uploaded!

WunderBlogs® & News

Nearby

Air Quality

  Air Quality AQ Index Pollutant
Not available.

Snow Depth

Station Depth Elevation

Earthquake Activity

City Distance Mag. Time & Date
Minimum magnitude displayed is 2.5.

Coastal Water Temperatures

Place Temperature

Stations

Nearby Weather Stations

Station Location Temp. Windchill Dew Point Humidity Wind Precip. Elev Updated Type